sensor_id;sensor_type;location;lat;lon;timestamp;temperature;humidity
39925;DHT22;25592;49.986;11.618;2022-08-01T00:00:26;23.70;77.80
39925;DHT22;25592;49.986;11.618;2022-08-01T00:03:11;23.70;79.10
39925;DHT22;25592;49.986;11.618;2022-08-01T00:05:57;23.60;78.90
39925;DHT22;25592;49.986;11.618;2022-08-01T00:08:42;23.60;78.10
39925;DHT22;25592;49.986;11.618;2022-08-01T00:11:27;23.50;76.60
39925;DHT22;25592;49.986;11.618;2022-08-01T00:14:13;23.50;76.10
39925;DHT22;25592;49.986;11.618;2022-08-01T00:16:59;23.50;76.40
39925;DHT22;25592;49.986;11.618;2022-08-01T00:19:51;23.50;77.10
39925;DHT22;25592;49.986;11.618;2022-08-01T00:22:36;23.50;77.10
39925;DHT22;25592;49.986;11.618;2022-08-01T00:25:22;23.30;76.70
39925;DHT22;25592;49.986;11.618;2022-08-01T00:28:18;23.30;76.80
39925;DHT22;25592;49.986;11.618;2022-08-01T00:31:03;23.40;76.40
39925;DHT22;25592;49.986;11.618;2022-08-01T00:33:49;23.40;76.30
39925;DHT22;25592;49.986;11.618;2022-08-01T00:36:34;23.40;76.50
39925;DHT22;25592;49.986;11.618;2022-08-01T00:39:19;23.30;77.30
39925;DHT22;25592;49.986;11.618;2022-08-01T00:42:09;23.30;77.40
39925;DHT22;25592;49.986;11.618;2022-08-01T00:44:55;23.30;77.20
39925;DHT22;25592;49.986;11.618;2022-08-01T00:47:40;23.30;77.40
39925;DHT22;25592;49.986;11.618;2022-08-01T00:50:26;23.30;77.50
39925;DHT22;25592;49.986;11.618;2022-08-01T00:53:11;23.20;77.50
39925;DHT22;25592;49.986;11.618;2022-08-01T00:56:03;23.20;78.10
39925;DHT22;25592;49.986;11.618;2022-08-01T00:58:49;23.20;77.60
39925;DHT22;25592;49.986;11.618;2022-08-01T01:01:34;23.10;77.40
39925;DHT22;25592;49.986;11.618;2022-08-01T01:04:24;23.00;77.20
39925;DHT22;25592;49.986;11.618;2022-08-01T01:07:26;23.00;78.60
39925;DHT22;25592;49.986;11.618;2022-08-01T01:10:19;23.00;78.60
39925;DHT22;25592;49.986;11.618;2022-08-01T01:13:10;23.00;78.70
39925;DHT22;25592;49.986;11.618;2022-08-01T01:16:00;22.90;79.40
39925;DHT22;25592;49.986;11.618;2022-08-01T01:18:55;22.90;79.90
39925;DHT22;25592;49.986;11.618;2022-08-01T01:25:04;22.80;78.90
39925;DHT22;25592;49.986;11.618;2022-08-01T01:28:17;22.80;78.10
39925;DHT22;25592;49.986;11.618;2022-08-01T01:31:06;22.70;79.10
39925;DHT22;25592;49.986;11.618;2022-08-01T01:33:57;22.80;79.30
39925;DHT22;25592;49.986;11.618;2022-08-01T01:36:46;22.60;80.00
39925;DHT22;25592;49.986;11.618;2022-08-01T01:39:32;22.70;79.30
39925;DHT22;25592;49.986;11.618;2022-08-01T01:42:19;22.60;79.40
39925;DHT22;25592;49.986;11.618;2022-08-01T01:45:06;22.70;79.60
39925;DHT22;25592;49.986;11.618;2022-08-01T01:47:52;22.60;80.30
39925;DHT22;25592;49.986;11.618;2022-08-01T01:50:39;22.50;80.80
39925;DHT22;25592;49.986;11.618;2022-08-01T01:53:28;22.50;80.80
39925;DHT22;25592;49.986;11.618;2022-08-01T01:56:16;22.50;80.50
39925;DHT22;25592;49.986;11.618;2022-08-01T01:59:03;22.50;80.60
39925;DHT22;25592;49.986;11.618;2022-08-01T02:01:49;22.40;80.90
39925;DHT22;25592;49.986;11.618;2022-08-01T02:04:51;22.40;80.20
39925;DHT22;25592;49.986;11.618;2022-08-01T02:07:39;22.40;80.30
39925;DHT22;25592;49.986;11.618;2022-08-01T02:10:25;22.30;80.70
39925;DHT22;25592;49.986;11.618;2022-08-01T02:13:13;22.30;81.00
39925;DHT22;25592;49.986;11.618;2022-08-01T02:15:59;22.20;81.30
39925;DHT22;25592;49.986;11.618;2022-08-01T02:18:45;22.20;81.00
39925;DHT22;25592;49.986;11.618;2022-08-01T02:21:49;22.30;80.70
39925;DHT22;25592;49.986;11.618;2022-08-01T02:24:42;22.30;81.00
39925;DHT22;25592;49.986;11.618;2022-08-01T02:27:42;22.40;80.60
39925;DHT22;25592;49.986;11.618;2022-08-01T02:30:32;22.30;80.80
39925;DHT22;25592;49.986;11.618;2022-08-01T02:33:23;22.30;80.80
39925;DHT22;25592;49.986;11.618;2022-08-01T02:36:11;22.20;81.80
39925;DHT22;25592;49.986;11.618;2022-08-01T02:39:18;22.20;82.40
39925;DHT22;25592;49.986;11.618;2022-08-01T02:42:07;22.10;82.50
39925;DHT22;25592;49.986;11.618;2022-08-01T02:44:54;22.10;83.10
39925;DHT22;25592;49.986;11.618;2022-08-01T02:47:40;22.10;82.80
39925;DHT22;25592;49.986;11.618;2022-08-01T02:50:28;22.10;83.30
39925;DHT22;25592;49.986;11.618;2022-08-01T02:53:19;22.20;82.90
39925;DHT22;25592;49.986;11.618;2022-08-01T02:56:06;22.10;83.10
39925;DHT22;25592;49.986;11.618;2022-08-01T02:58:52;22.10;82.50
39925;DHT22;25592;49.986;11.618;2022-08-01T03:01:42;22.00;82.50
39925;DHT22;25592;49.986;11.618;2022-08-01T03:04:29;22.00;82.50
39925;DHT22;25592;49.986;11.618;2022-08-01T03:07:15;22.00;83.30
39925;DHT22;25592;49.986;11.618;2022-08-01T03:10:04;21.90;83.60
39925;DHT22;25592;49.986;11.618;2022-08-01T03:12:50;21.80;83.90
39925;DHT22;25592;49.986;11.618;2022-08-01T03:15:39;21.80;84.20
39925;DHT22;25592;49.986;11.618;2022-08-01T03:18:25;21.80;83.30
39925;DHT22;25592;49.986;11.618;2022-08-01T03:21:13;21.70;84.10
39925;DHT22;25592;49.986;11.618;2022-08-01T03:24:01;21.70;83.90
39925;DHT22;25592;49.986;11.618;2022-08-01T03:26:48;21.70;83.80
39925;DHT22;25592;49.986;11.618;2022-08-01T03:29:36;21.70;83.60
39925;DHT22;25592;49.986;11.618;2022-08-01T03:32:26;21.70;83.60
39925;DHT22;25592;49.986;11.618;2022-08-01T03:35:12;21.50;84.80
39925;DHT22;25592;49.986;11.618;2022-08-01T03:38:00;21.60;84.90
39925;DHT22;25592;49.986;11.618;2022-08-01T03:41:09;21.60;84.10
39925;DHT22;25592;49.986;11.618;2022-08-01T03:44:11;21.60;83.90
39925;DHT22;25592;49.986;11.618;2022-08-01T03:47:00;21.60;85.30
39925;DHT22;25592;49.986;11.618;2022-08-01T03:49:48;21.60;85.20
39925;DHT22;25592;49.986;11.618;2022-08-01T03:52:38;21.50;85.10
39925;DHT22;25592;49.986;11.618;2022-08-01T03:55:24;21.50;86.10
39925;DHT22;25592;49.986;11.618;2022-08-01T03:58:10;21.50;85.60
39925;DHT22;25592;49.986;11.618;2022-08-01T04:00:57;21.50;85.40
39925;DHT22;25592;49.986;11.618;2022-08-01T04:03:43;21.50;86.60
39925;DHT22;25592;49.986;11.618;2022-08-01T04:06:29;21.40;86.90
39925;DHT22;25592;49.986;11.618;2022-08-01T04:09:15;21.40;87.20
39925;DHT22;25592;49.986;11.618;2022-08-01T04:12:00;21.40;86.60
39925;DHT22;25592;49.986;11.618;2022-08-01T04:14:56;21.40;87.10
39925;DHT22;25592;49.986;11.618;2022-08-01T04:17:41;21.30;87.60
39925;DHT22;25592;49.986;11.618;2022-08-01T04:20:27;21.40;85.80
39925;DHT22;25592;49.986;11.618;2022-08-01T04:23:18;21.40;86.80
39925;DHT22;25592;49.986;11.618;2022-08-01T04:26:05;21.40;87.40
39925;DHT22;25592;49.986;11.618;2022-08-01T04:28:52;21.30;87.80
39925;DHT22;25592;49.986;11.618;2022-08-01T04:31:42;21.30;88.10
39925;DHT22;25592;49.986;11.618;2022-08-01T04:34:31;21.20;87.60
39925;DHT22;25592;49.986;11.618;2022-08-01T04:37:17;21.30;87.10
39925;DHT22;25592;49.986;11.618;2022-08-01T04:40:04;21.30;88.00
39925;DHT22;25592;49.986;11.618;2022-08-01T04:42:51;21.40;87.70
39925;DHT22;25592;49.986;11.618;2022-08-01T04:45:36;21.30;88.20
39925;DHT22;25592;49.986;11.618;2022-08-01T04:48:22;21.40;87.30
39925;DHT22;25592;49.986;11.618;2022-08-01T04:51:16;21.40;88.50
39925;DHT22;25592;49.986;11.618;2022-08-01T04:54:01;21.40;89.10
39925;DHT22;25592;49.986;11.618;2022-08-01T04:56:47;21.40;90.00
39925;DHT22;25592;49.986;11.618;2022-08-01T04:59:37;21.40;90.40
39925;DHT22;25592;49.986;11.618;2022-08-01T05:02:26;21.50;90.30
39925;DHT22;25592;49.986;11.618;2022-08-01T05:05:13;21.60;89.10
39925;DHT22;25592;49.986;11.618;2022-08-01T05:07:59;21.70;90.20
39925;DHT22;25592;49.986;11.618;2022-08-01T05:10:45;21.70;90.10
39925;DHT22;25592;49.986;11.618;2022-08-01T05:13:30;21.70;89.80
39925;DHT22;25592;49.986;11.618;2022-08-01T05:16:16;21.80;89.90
39925;DHT22;25592;49.986;11.618;2022-08-01T05:19:01;21.80;90.00
39925;DHT22;25592;49.986;11.618;2022-08-01T05:21:47;21.70;89.70
39925;DHT22;25592;49.986;11.618;2022-08-01T05:24:35;21.80;89.90
39925;DHT22;25592;49.986;11.618;2022-08-01T05:27:20;21.80;89.30
39925;DHT22;25592;49.986;11.618;2022-08-01T05:30:07;21.80;89.10
39925;DHT22;25592;49.986;11.618;2022-08-01T05:32:53;21.80;89.60
39925;DHT22;25592;49.986;11.618;2022-08-01T05:35:41;21.90;88.90
39925;DHT22;25592;49.986;11.618;2022-08-01T05:38:33;22.00;89.30
39925;DHT22;25592;49.986;11.618;2022-08-01T05:41:18;22.10;88.90
39925;DHT22;25592;49.986;11.618;2022-08-01T05:44:05;22.10;89.20
39925;DHT22;25592;49.986;11.618;2022-08-01T05:46:50;22.10;89.30
39925;DHT22;25592;49.986;11.618;2022-08-01T05:49:36;22.10;89.70
39925;DHT22;25592;49.986;11.618;2022-08-01T05:52:21;22.10;87.40
39925;DHT22;25592;49.986;11.618;2022-08-01T05:55:07;22.20;89.20
39925;DHT22;25592;49.986;11.618;2022-08-01T05:57:53;22.20;89.10
39925;DHT22;25592;49.986;11.618;2022-08-01T06:00:38;22.30;89.60
39925;DHT22;25592;49.986;11.618;2022-08-01T06:03:24;22.30;89.20
39925;DHT22;25592;49.986;11.618;2022-08-01T06:06:10;22.40;88.80
39925;DHT22;25592;49.986;11.618;2022-08-01T06:08:55;22.30;89.00
39925;DHT22;25592;49.986;11.618;2022-08-01T06:11:41;22.40;89.70
39925;DHT22;25592;49.986;11.618;2022-08-01T06:14:26;22.50;89.30
39925;DHT22;25592;49.986;11.618;2022-08-01T06:17:11;22.50;89.60
39925;DHT22;25592;49.986;11.618;2022-08-01T06:19:57;22.60;89.90
39925;DHT22;25592;49.986;11.618;2022-08-01T06:22:42;22.60;89.50
39925;DHT22;25592;49.986;11.618;2022-08-01T06:25:28;22.70;90.00
39925;DHT22;25592;49.986;11.618;2022-08-01T06:28:14;22.70;89.60
39925;DHT22;25592;49.986;11.618;2022-08-01T06:30:59;22.70;90.00
39925;DHT22;25592;49.986;11.618;2022-08-01T06:33:44;22.80;89.70
39925;DHT22;25592;49.986;11.618;2022-08-01T06:36:30;22.70;89.80
39925;DHT22;25592;49.986;11.618;2022-08-01T06:39:15;22.80;90.10
39925;DHT22;25592;49.986;11.618;2022-08-01T06:42:01;22.80;90.10
39925;DHT22;25592;49.986;11.618;2022-08-01T06:44:46;22.80;89.30
39925;DHT22;25592;49.986;11.618;2022-08-01T06:47:32;22.80;90.30
39925;DHT22;25592;49.986;11.618;2022-08-01T06:50:17;22.90;90.00
39925;DHT22;25592;49.986;11.618;2022-08-01T06:53:03;22.90;90.10
39925;DHT22;25592;49.986;11.618;2022-08-01T06:55:48;23.00;89.10
39925;DHT22;25592;49.986;11.618;2022-08-01T06:58:34;23.00;90.00
39925;DHT22;25592;49.986;11.618;2022-08-01T07:01:20;23.10;90.00
39925;DHT22;25592;49.986;11.618;2022-08-01T07:04:06;23.20;89.80
39925;DHT22;25592;49.986;11.618;2022-08-01T07:06:51;23.30;90.00
39925;DHT22;25592;49.986;11.618;2022-08-01T07:09:36;23.40;90.10
39925;DHT22;25592;49.986;11.618;2022-08-01T07:12:22;23.50;90.00
39925;DHT22;25592;49.986;11.618;2022-08-01T07:15:08;23.60;89.40
39925;DHT22;25592;49.986;11.618;2022-08-01T07:17:54;23.50;89.50
39925;DHT22;25592;49.986;11.618;2022-08-01T07:20:40;23.40;89.10
39925;DHT22;25592;49.986;11.618;2022-08-01T07:23:37;23.30;89.20
39925;DHT22;25592;49.986;11.618;2022-08-01T07:26:30;23.20;90.00
39925;DHT22;25592;49.986;11.618;2022-08-01T07:29:15;23.20;89.70
39925;DHT22;25592;49.986;11.618;2022-08-01T07:32:00;23.20;89.40
39925;DHT22;25592;49.986;11.618;2022-08-01T07:34:47;23.30;89.80
39925;DHT22;25592;49.986;11.618;2022-08-01T07:37:32;23.50;89.40
39925;DHT22;25592;49.986;11.618;2022-08-01T07:40:33;23.50;88.80
39925;DHT22;25592;49.986;11.618;2022-08-01T07:43:18;23.70;88.20
39925;DHT22;25592;49.986;11.618;2022-08-01T07:46:04;23.80;88.30
39925;DHT22;25592;49.986;11.618;2022-08-01T07:48:49;24.00;88.20
39925;DHT22;25592;49.986;11.618;2022-08-01T07:51:35;24.30;87.90
39925;DHT22;25592;49.986;11.618;2022-08-01T07:54:20;24.20;86.10
39925;DHT22;25592;49.986;11.618;2022-08-01T07:57:17;24.20;85.60
39925;DHT22;25592;49.986;11.618;2022-08-01T08:00:05;24.30;86.10
39925;DHT22;25592;49.986;11.618;2022-08-01T08:02:51;24.10;85.60
39925;DHT22;25592;49.986;11.618;2022-08-01T08:05:36;24.10;86.20
39925;DHT22;25592;49.986;11.618;2022-08-01T08:08:41;24.10;86.40
39925;DHT22;25592;49.986;11.618;2022-08-01T08:11:27;24.00;86.50
39925;DHT22;25592;49.986;11.618;2022-08-01T08:14:15;24.00;87.10
39925;DHT22;25592;49.986;11.618;2022-08-01T08:17:00;23.90;87.20
39925;DHT22;25592;49.986;11.618;2022-08-01T08:19:47;24.00;87.00
39925;DHT22;25592;49.986;11.618;2022-08-01T08:22:33;24.20;85.90
39925;DHT22;25592;49.986;11.618;2022-08-01T08:25:19;24.30;86.10
39925;DHT22;25592;49.986;11.618;2022-08-01T08:28:04;24.40;86.20
39925;DHT22;25592;49.986;11.618;2022-08-01T08:30:49;24.50;85.40
39925;DHT22;25592;49.986;11.618;2022-08-01T08:33:35;24.60;84.90
39925;DHT22;25592;49.986;11.618;2022-08-01T08:36:20;24.60;85.00
39925;DHT22;25592;49.986;11.618;2022-08-01T08:39:15;24.80;84.20
39925;DHT22;25592;49.986;11.618;2022-08-01T08:42:08;24.90;84.10
39925;DHT22;25592;49.986;11.618;2022-08-01T08:44:53;24.90;83.70
39925;DHT22;25592;49.986;11.618;2022-08-01T08:47:41;25.00;83.10
39925;DHT22;25592;49.986;11.618;2022-08-01T08:50:29;25.00;83.50
39925;DHT22;25592;49.986;11.618;2022-08-01T08:53:15;25.00;82.60
39925;DHT22;25592;49.986;11.618;2022-08-01T08:56:03;24.90;83.10
39925;DHT22;25592;49.986;11.618;2022-08-01T08:58:52;24.80;83.80
39925;DHT22;25592;49.986;11.618;2022-08-01T09:01:37;24.80;82.40
39925;DHT22;25592;49.986;11.618;2022-08-01T09:04:23;25.00;82.50
39925;DHT22;25592;49.986;11.618;2022-08-01T09:07:10;25.10;82.10
39925;DHT22;25592;49.986;11.618;2022-08-01T09:09:57;25.40;81.20
39925;DHT22;25592;49.986;11.618;2022-08-01T09:13:12;25.40;81.50
39925;DHT22;25592;49.986;11.618;2022-08-01T09:15:57;25.40;81.50
39925;DHT22;25592;49.986;11.618;2022-08-01T09:18:45;25.50;80.80
39925;DHT22;25592;49.986;11.618;2022-08-01T09:21:38;25.60;80.70
39925;DHT22;25592;49.986;11.618;2022-08-01T09:24:25;25.50;79.70
39925;DHT22;25592;49.986;11.618;2022-08-01T09:27:17;25.50;79.80
39925;DHT22;25592;49.986;11.618;2022-08-01T09:30:16;25.40;80.40
39925;DHT22;25592;49.986;11.618;2022-08-01T09:33:10;25.40;80.40
39925;DHT22;25592;49.986;11.618;2022-08-01T09:36:06;25.40;80.20
39925;DHT22;25592;49.986;11.618;2022-08-01T09:39:12;25.50;80.10
39925;DHT22;25592;49.986;11.618;2022-08-01T09:42:00;25.50;80.50
39925;DHT22;25592;49.986;11.618;2022-08-01T09:44:47;25.60;79.70
39925;DHT22;25592;49.986;11.618;2022-08-01T09:47:40;25.70;79.20
39925;DHT22;25592;49.986;11.618;2022-08-01T09:50:39;25.70;78.30
39925;DHT22;25592;49.986;11.618;2022-08-01T09:53:25;25.70;79.00
39925;DHT22;25592;49.986;11.618;2022-08-01T09:56:15;25.60;78.90
39925;DHT22;25592;49.986;11.618;2022-08-01T09:59:00;25.70;78.40
39925;DHT22;25592;49.986;11.618;2022-08-01T10:01:48;25.80;78.30
39925;DHT22;25592;49.986;11.618;2022-08-01T10:04:34;25.90;78.00
39925;DHT22;25592;49.986;11.618;2022-08-01T10:07:20;26.00;77.70
39925;DHT22;25592;49.986;11.618;2022-08-01T10:10:13;26.10;77.60
39925;DHT22;25592;49.986;11.618;2022-08-01T10:12:59;25.90;77.60
39925;DHT22;25592;49.986;11.618;2022-08-01T10:15:44;25.90;77.60
39925;DHT22;25592;49.986;11.618;2022-08-01T10:18:33;25.90;77.50
39925;DHT22;25592;49.986;11.618;2022-08-01T10:21:19;25.70;77.80
39925;DHT22;25592;49.986;11.618;2022-08-01T10:24:28;25.60;77.20
39925;DHT22;25592;49.986;11.618;2022-08-01T10:27:16;25.60;77.50
39925;DHT22;25592;49.986;11.618;2022-08-01T10:30:09;25.60;77.50
39925;DHT22;25592;49.986;11.618;2022-08-01T10:33:07;25.50;77.20
39925;DHT22;25592;49.986;11.618;2022-08-01T10:35:59;25.40;77.50
39925;DHT22;25592;49.986;11.618;2022-08-01T10:38:45;25.30;78.60
39925;DHT22;25592;49.986;11.618;2022-08-01T10:41:32;25.10;79.60
39925;DHT22;25592;49.986;11.618;2022-08-01T10:44:18;24.70;87.00
39925;DHT22;25592;49.986;11.618;2022-08-01T10:47:13;24.80;87.90
39925;DHT22;25592;49.986;11.618;2022-08-01T10:50:16;25.00;89.10
39925;DHT22;25592;49.986;11.618;2022-08-01T10:53:16;24.90;87.90
39925;DHT22;25592;49.986;11.618;2022-08-01T10:56:08;25.00;88.30
39925;DHT22;25592;49.986;11.618;2022-08-01T10:59:03;25.00;88.50
39925;DHT22;25592;49.986;11.618;2022-08-01T11:02:25;25.50;89.10
39925;DHT22;25592;49.986;11.618;2022-08-01T11:05:12;25.70;87.30
39925;DHT22;25592;49.986;11.618;2022-08-01T11:08:21;25.80;85.00
39925;DHT22;25592;49.986;11.618;2022-08-01T11:11:08;25.70;83.40
39925;DHT22;25592;49.986;11.618;2022-08-01T11:14:04;25.50;82.60
39925;DHT22;25592;49.986;11.618;2022-08-01T11:16:53;25.90;83.70
39925;DHT22;25592;49.986;11.618;2022-08-01T11:20:11;26.30;82.10
39925;DHT22;25592;49.986;11.618;2022-08-01T11:29:10;26.10;79.80
39925;DHT22;25592;49.986;11.618;2022-08-01T11:32:24;26.00;78.60
39925;DHT22;25592;49.986;11.618;2022-08-01T11:35:10;26.30;78.80
39925;DHT22;25592;49.986;11.618;2022-08-01T11:37:55;26.60;77.40
39925;DHT22;25592;49.986;11.618;2022-08-01T11:40:41;26.60;76.80
39925;DHT22;25592;49.986;11.618;2022-08-01T11:43:27;26.40;76.80
39925;DHT22;25592;49.986;11.618;2022-08-01T11:46:16;26.30;76.90
39925;DHT22;25592;49.986;11.618;2022-08-01T11:49:32;26.30;76.80
39925;DHT22;25592;49.986;11.618;2022-08-01T11:52:28;26.40;76.50
39925;DHT22;25592;49.986;11.618;2022-08-01T11:55:14;26.20;77.20
39925;DHT22;25592;49.986;11.618;2022-08-01T11:58:03;26.30;77.00
39925;DHT22;25592;49.986;11.618;2022-08-01T12:00:57;26.10;76.80
39925;DHT22;25592;49.986;11.618;2022-08-01T12:03:42;26.30;77.00
39925;DHT22;25592;49.986;11.618;2022-08-01T12:06:30;26.30;76.80
39925;DHT22;25592;49.986;11.618;2022-08-01T12:09:21;26.40;77.00
39925;DHT22;25592;49.986;11.618;2022-08-01T12:12:06;26.20;76.40
39925;DHT22;25592;49.986;11.618;2022-08-01T12:14:54;26.20;76.00
39925;DHT22;25592;49.986;11.618;2022-08-01T12:17:42;25.90;76.20
39925;DHT22;25592;49.986;11.618;2022-08-01T12:20:44;25.90;76.50
39925;DHT22;25592;49.986;11.618;2022-08-01T12:23:46;26.10;76.80
39925;DHT22;25592;49.986;11.618;2022-08-01T12:26:44;26.20;76.50
39925;DHT22;25592;49.986;11.618;2022-08-01T12:29:36;26.20;76.80
39925;DHT22;25592;49.986;11.618;2022-08-01T12:32:30;26.20;76.80
39925;DHT22;25592;49.986;11.618;2022-08-01T12:35:25;26.20;77.50
39925;DHT22;25592;49.986;11.618;2022-08-01T12:38:16;27.10;76.10
39925;DHT22;25592;49.986;11.618;2022-08-01T12:41:01;27.70;74.60
39925;DHT22;25592;49.986;11.618;2022-08-01T12:43:46;28.20;72.60
39925;DHT22;25592;49.986;11.618;2022-08-01T12:46:32;28.60;72.20
39925;DHT22;25592;49.986;11.618;2022-08-01T12:49:18;29.10;71.80
39925;DHT22;25592;49.986;11.618;2022-08-01T12:52:04;29.40;69.90
39925;DHT22;25592;49.986;11.618;2022-08-01T12:55:05;29.20;69.70
39925;DHT22;25592;49.986;11.618;2022-08-01T12:58:11;29.60;69.70
39925;DHT22;25592;49.986;11.618;2022-08-01T13:01:10;29.90;68.50
39925;DHT22;25592;49.986;11.618;2022-08-01T13:03:59;29.80;68.40
39925;DHT22;25592;49.986;11.618;2022-08-01T13:06:46;30.30;67.60
39925;DHT22;25592;49.986;11.618;2022-08-01T13:09:31;30.10;67.10
39925;DHT22;25592;49.986;11.618;2022-08-01T13:12:17;30.20;66.80
39925;DHT22;25592;49.986;11.618;2022-08-01T13:15:20;30.40;66.60
39925;DHT22;25592;49.986;11.618;2022-08-01T13:18:25;30.50;66.30
39925;DHT22;25592;49.986;11.618;2022-08-01T13:24:13;30.90;65.10
39925;DHT22;25592;49.986;11.618;2022-08-01T13:27:00;30.80;65.30
39925;DHT22;25592;49.986;11.618;2022-08-01T13:29:47;30.90;65.90
39925;DHT22;25592;49.986;11.618;2022-08-01T13:32:34;30.80;65.70
39925;DHT22;25592;49.986;11.618;2022-08-01T13:35:20;31.20;65.20
39925;DHT22;25592;49.986;11.618;2022-08-01T13:38:05;31.00;64.00
39925;DHT22;25592;49.986;11.618;2022-08-01T13:40:58;31.20;64.20
39925;DHT22;25592;49.986;11.618;2022-08-01T13:43:43;31.20;64.60
39925;DHT22;25592;49.986;11.618;2022-08-01T13:46:44;30.60;63.40
39925;DHT22;25592;49.986;11.618;2022-08-01T13:49:34;30.30;65.80
39925;DHT22;25592;49.986;11.618;2022-08-01T13:52:24;30.50;66.20
39925;DHT22;25592;49.986;11.618;2022-08-01T13:55:10;30.70;64.50
39925;DHT22;25592;49.986;11.618;2022-08-01T13:57:55;31.00;65.00
39925;DHT22;25592;49.986;11.618;2022-08-01T14:00:41;31.50;64.20
39925;DHT22;25592;49.986;11.618;2022-08-01T14:03:26;31.20;62.40
39925;DHT22;25592;49.986;11.618;2022-08-01T14:06:18;30.80;62.50
39925;DHT22;25592;49.986;11.618;2022-08-01T14:09:05;30.50;63.20
39925;DHT22;25592;49.986;11.618;2022-08-01T14:12:07;30.80;63.80
39925;DHT22;25592;49.986;11.618;2022-08-01T14:14:54;31.20;63.20
39925;DHT22;25592;49.986;11.618;2022-08-01T14:17:39;31.00;62.20
39925;DHT22;25592;49.986;11.618;2022-08-01T14:20:33;30.70;62.80
39925;DHT22;25592;49.986;11.618;2022-08-01T14:23:18;30.90;62.50
39925;DHT22;25592;49.986;11.618;2022-08-01T14:26:04;30.50;62.40
39925;DHT22;25592;49.986;11.618;2022-08-01T14:28:56;30.40;63.30
39925;DHT22;25592;49.986;11.618;2022-08-01T14:31:41;30.20;63.10
39925;DHT22;25592;49.986;11.618;2022-08-01T14:34:27;30.10;63.40
39925;DHT22;25592;49.986;11.618;2022-08-01T14:37:12;30.10;63.30
39925;DHT22;25592;49.986;11.618;2022-08-01T14:39:59;30.10;64.00
39925;DHT22;25592;49.986;11.618;2022-08-01T14:42:45;30.10;63.30
39925;DHT22;25592;49.986;11.618;2022-08-01T14:45:31;29.80;62.90
39925;DHT22;25592;49.986;11.618;2022-08-01T14:48:18;29.80;63.00
39925;DHT22;25592;49.986;11.618;2022-08-01T14:51:03;30.10;63.00
39925;DHT22;25592;49.986;11.618;2022-08-01T14:53:49;30.40;62.80
39925;DHT22;25592;49.986;11.618;2022-08-01T14:56:37;30.50;61.30
39925;DHT22;25592;49.986;11.618;2022-08-01T14:59:22;29.90;61.80
39925;DHT22;25592;49.986;11.618;2022-08-01T15:02:08;30.10;62.70
39925;DHT22;25592;49.986;11.618;2022-08-01T15:05:05;30.00;61.30
39925;DHT22;25592;49.986;11.618;2022-08-01T15:08:11;29.80;62.80
39925;DHT22;25592;49.986;11.618;2022-08-01T15:11:03;29.60;62.00
39925;DHT22;25592;49.986;11.618;2022-08-01T15:14:12;29.50;62.80
39925;DHT22;25592;49.986;11.618;2022-08-01T15:17:25;29.60;61.80
39925;DHT22;25592;49.986;11.618;2022-08-01T15:20:24;29.30;61.10
39925;DHT22;25592;49.986;11.618;2022-08-01T15:23:22;29.10;60.70
39925;DHT22;25592;49.986;11.618;2022-08-01T15:26:19;29.10;61.00
39925;DHT22;25592;49.986;11.618;2022-08-01T15:29:11;29.10;61.20
39925;DHT22;25592;49.986;11.618;2022-08-01T15:32:06;29.00;61.20
39925;DHT22;25592;49.986;11.618;2022-08-01T15:35:01;28.90;61.60
39925;DHT22;25592;49.986;11.618;2022-08-01T15:37:55;28.80;62.40
39925;DHT22;25592;49.986;11.618;2022-08-01T15:40:52;28.60;63.10
39925;DHT22;25592;49.986;11.618;2022-08-01T15:43:54;28.80;62.00
39925;DHT22;25592;49.986;11.618;2022-08-01T15:46:51;28.90;61.00
39925;DHT22;25592;49.986;11.618;2022-08-01T15:49:58;29.40;61.00
39925;DHT22;25592;49.986;11.618;2022-08-01T15:53:02;29.80;59.90
39925;DHT22;25592;49.986;11.618;2022-08-01T15:55:58;30.00;58.40
39925;DHT22;25592;49.986;11.618;2022-08-01T15:59:12;30.00;57.30
39925;DHT22;25592;49.986;11.618;2022-08-01T16:01:58;30.00;57.60
39925;DHT22;25592;49.986;11.618;2022-08-01T16:04:44;30.10;57.60
39925;DHT22;25592;49.986;11.618;2022-08-01T16:07:35;30.00;56.80
39925;DHT22;25592;49.986;11.618;2022-08-01T16:10:48;30.00;57.10
39925;DHT22;25592;49.986;11.618;2022-08-01T16:13:46;30.00;56.20
39925;DHT22;25592;49.986;11.618;2022-08-01T16:16:49;30.00;57.00
39925;DHT22;25592;49.986;11.618;2022-08-01T16:19:42;29.80;56.60
39925;DHT22;25592;49.986;11.618;2022-08-01T16:22:33;29.70;56.80
39925;DHT22;25592;49.986;11.618;2022-08-01T16:25:29;29.50;58.00
39925;DHT22;25592;49.986;11.618;2022-08-01T16:28:15;29.50;57.90
39925;DHT22;25592;49.986;11.618;2022-08-01T16:31:08;29.30;58.20
39925;DHT22;25592;49.986;11.618;2022-08-01T16:34:03;29.10;57.50
39925;DHT22;25592;49.986;11.618;2022-08-01T16:37:01;28.90;57.70
39925;DHT22;25592;49.986;11.618;2022-08-01T16:39:53;28.90;58.30
39925;DHT22;25592;49.986;11.618;2022-08-01T16:42:45;28.90;58.70
39925;DHT22;25592;49.986;11.618;2022-08-01T16:45:37;28.80;59.00
39925;DHT22;25592;49.986;11.618;2022-08-01T16:48:29;28.80;58.90
39925;DHT22;25592;49.986;11.618;2022-08-01T16:51:15;28.80;59.20
39925;DHT22;25592;49.986;11.618;2022-08-01T16:54:05;28.80;58.90
39925;DHT22;25592;49.986;11.618;2022-08-01T16:57:12;28.70;59.90
39925;DHT22;25592;49.986;11.618;2022-08-01T16:59:58;28.70;59.20
39925;DHT22;25592;49.986;11.618;2022-08-01T17:02:53;28.60;59.00
39925;DHT22;25592;49.986;11.618;2022-08-01T17:05:39;28.50;59.20
39925;DHT22;25592;49.986;11.618;2022-08-01T17:08:28;28.50;59.60
39925;DHT22;25592;49.986;11.618;2022-08-01T17:11:17;28.50;59.80
39925;DHT22;25592;49.986;11.618;2022-08-01T17:14:06;28.40;59.50
39925;DHT22;25592;49.986;11.618;2022-08-01T17:16:57;28.40;59.90
39925;DHT22;25592;49.986;11.618;2022-08-01T17:19:44;28.50;60.40
39925;DHT22;25592;49.986;11.618;2022-08-01T17:22:30;28.40;60.10
39925;DHT22;25592;49.986;11.618;2022-08-01T17:25:16;28.40;60.20
39925;DHT22;25592;49.986;11.618;2022-08-01T17:28:08;28.40;60.50
39925;DHT22;25592;49.986;11.618;2022-08-01T17:30:58;28.40;60.20
39925;DHT22;25592;49.986;11.618;2022-08-01T17:33:51;28.40;60.60
39925;DHT22;25592;49.986;11.618;2022-08-01T17:36:40;28.30;61.20
39925;DHT22;25592;49.986;11.618;2022-08-01T17:39:29;28.00;60.00
39925;DHT22;25592;49.986;11.618;2022-08-01T17:42:24;27.80;60.40
39925;DHT22;25592;49.986;11.618;2022-08-01T17:45:16;27.70;60.60
39925;DHT22;25592;49.986;11.618;2022-08-01T17:48:15;27.50;61.00